sensor_id;sensor_type;location;lat;lon;timestamp;P1;durP1;ratioP1;P2;durP2;ratioP2
11761;SDS011;5938;47.098;15.474;2022-08-03T00:01:50;6.03;;;5.53;;
11761;SDS011;5938;47.098;15.474;2022-08-03T00:05:54;5.87;;;5.30;;
11761;SDS011;5938;47.098;15.474;2022-08-03T00:10:05;6.20;;;5.60;;
11761;SDS011;5938;47.098;15.474;2022-08-03T00:14:10;6.93;;;6.33;;
11761;SDS011;5938;47.098;15.474;2022-08-03T00:18:13;6.50;;;6.00;;
11761;SDS011;5938;47.098;15.474;2022-08-03T00:22:18;6.37;;;5.87;;
11761;SDS011;5938;47.098;15.474;2022-08-03T00:26:24;6.43;;;5.83;;
11761;SDS011;5938;47.098;15.474;2022-08-03T00:30:27;7.63;;;6.97;;
11761;SDS011;5938;47.098;15.474;2022-08-03T00:34:31;7.77;;;7.07;;
11761;SDS011;5938;47.098;15.474;2022-08-03T00:38:56;7.17;;;6.57;;
11761;SDS011;5938;47.098;15.474;2022-08-03T00:43:00;7.27;;;6.63;;
11761;SDS011;5938;47.098;15.474;2022-08-03T00:47:04;8.80;;;6.17;;
11761;SDS011;5938;47.098;15.474;2022-08-03T00:51:08;6.27;;;5.67;;
11761;SDS011;5938;47.098;15.474;2022-08-03T00:55:13;6.20;;;5.70;;
11761;SDS011;5938;47.098;15.474;2022-08-03T00:59:16;6.40;;;5.80;;
11761;SDS011;5938;47.098;15.474;2022-08-03T01:03:20;6.07;;;5.50;;
11761;SDS011;5938;47.098;15.474;2022-08-03T01:07:26;6.63;;;6.13;;
11761;SDS011;5938;47.098;15.474;2022-08-03T01:11:42;6.97;;;6.27;;
11761;SDS011;5938;47.098;15.474;2022-08-03T01:16:02;6.40;;;5.80;;
11761;SDS011;5938;47.098;15.474;2022-08-03T01:20:14;7.53;;;6.30;;
11761;SDS011;5938;47.098;15.474;2022-08-03T01:24:21;7.40;;;6.80;;
11761;SDS011;5938;47.098;15.474;2022-08-03T01:28:46;6.53;;;5.67;;
11761;SDS011;5938;47.098;15.474;2022-08-03T01:33:08;7.40;;;6.80;;
11761;SDS011;5938;47.098;15.474;2022-08-03T01:37:17;7.57;;;6.93;;
11761;SDS011;5938;47.098;15.474;2022-08-03T01:41:32;6.87;;;6.27;;
11761;SDS011;5938;47.098;15.474;2022-08-03T01:45:38;6.37;;;5.77;;
11761;SDS011;5938;47.098;15.474;2022-08-03T01:49:44;7.33;;;6.63;;
11761;SDS011;5938;47.098;15.474;2022-08-03T01:53:48;7.10;;;6.50;;
11761;SDS011;5938;47.098;15.474;2022-08-03T01:57:58;5.70;;;5.20;;
11761;SDS011;5938;47.098;15.474;2022-08-03T02:02:15;6.30;;;5.80;;
11761;SDS011;5938;47.098;15.474;2022-08-03T02:06:36;6.60;;;6.10;;
11761;SDS011;5938;47.098;15.474;2022-08-03T02:11:01;5.77;;;5.27;;
11761;SDS011;5938;47.098;15.474;2022-08-03T02:15:07;6.63;;;6.13;;
11761;SDS011;5938;47.098;15.474;2022-08-03T02:19:14;6.43;;;5.83;;
11761;SDS011;5938;47.098;15.474;2022-08-03T02:23:22;6.87;;;5.80;;
11761;SDS011;5938;47.098;15.474;2022-08-03T02:27:25;6.20;;;5.70;;
11761;SDS011;5938;47.098;15.474;2022-08-03T02:31:32;6.07;;;5.57;;
11761;SDS011;5938;47.098;15.474;2022-08-03T02:35:38;6.83;;;6.23;;
11761;SDS011;5938;47.098;15.474;2022-08-03T02:39:44;6.47;;;5.87;;
11761;SDS011;5938;47.098;15.474;2022-08-03T02:43:50;7.20;;;6.20;;
11761;SDS011;5938;47.098;15.474;2022-08-03T02:48:09;5.97;;;5.43;;
11761;SDS011;5938;47.098;15.474;2022-08-03T02:52:13;7.03;;;6.33;;
11761;SDS011;5938;47.098;15.474;2022-08-03T02:56:20;7.07;;;6.37;;
11761;SDS011;5938;47.098;15.474;2022-08-03T03:00:25;7.17;;;6.57;;
11761;SDS011;5938;47.098;15.474;2022-08-03T03:04:30;13.00;;;7.33;;
11761;SDS011;5938;47.098;15.474;2022-08-03T03:08:34;8.00;;;7.30;;
11761;SDS011;5938;47.098;15.474;2022-08-03T03:12:46;6.70;;;5.63;;
11761;SDS011;5938;47.098;15.474;2022-08-03T03:16:51;6.93;;;6.30;;
11761;SDS011;5938;47.098;15.474;2022-08-03T03:20:58;6.67;;;6.07;;
11761;SDS011;5938;47.098;15.474;2022-08-03T03:25:04;7.13;;;6.43;;
11761;SDS011;5938;47.098;15.474;2022-08-03T03:29:10;7.00;;;6.40;;
11761;SDS011;5938;47.098;15.474;2022-08-03T03:33:14;6.73;;;5.97;;
11761;SDS011;5938;47.098;15.474;2022-08-03T03:37:18;6.67;;;6.00;;
11761;SDS011;5938;47.098;15.474;2022-08-03T03:41:21;7.00;;;6.40;;
11761;SDS011;5938;47.098;15.474;2022-08-03T03:45:33;6.93;;;6.20;;
11761;SDS011;5938;47.098;15.474;2022-08-03T03:49:36;6.83;;;6.23;;
11761;SDS011;5938;47.098;15.474;2022-08-03T03:53:52;7.00;;;6.40;;
11761;SDS011;5938;47.098;15.474;2022-08-03T03:57:57;6.57;;;5.90;;
11761;SDS011;5938;47.098;15.474;2022-08-03T04:02:03;8.30;;;6.63;;
11761;SDS011;5938;47.098;15.474;2022-08-03T04:06:07;7.47;;;6.77;;
11761;SDS011;5938;47.098;15.474;2022-08-03T04:10:29;7.10;;;6.50;;
11761;SDS011;5938;47.098;15.474;2022-08-03T04:14:55;7.00;;;6.33;;
11761;SDS011;5938;47.098;15.474;2022-08-03T04:19:03;6.93;;;6.27;;
11761;SDS011;5938;47.098;15.474;2022-08-03T04:23:09;7.87;;;6.87;;
11761;SDS011;5938;47.098;15.474;2022-08-03T04:27:19;7.67;;;6.87;;
11761;SDS011;5938;47.098;15.474;2022-08-03T04:31:25;7.03;;;6.43;;
11761;SDS011;5938;47.098;15.474;2022-08-03T04:35:32;8.20;;;7.40;;
11761;SDS011;5938;47.098;15.474;2022-08-03T04:39:58;8.47;;;7.10;;
11761;SDS011;5938;47.098;15.474;2022-08-03T04:44:03;7.30;;;6.60;;
11761;SDS011;5938;47.098;15.474;2022-08-03T04:48:09;6.80;;;6.20;;
11761;SDS011;5938;47.098;15.474;2022-08-03T04:52:14;6.67;;;6.00;;
11761;SDS011;5938;47.098;15.474;2022-08-03T04:56:18;6.57;;;6.07;;
11761;SDS011;5938;47.098;15.474;2022-08-03T05:04:30;7.90;;;6.20;;
11761;SDS011;5938;47.098;15.474;2022-08-03T05:08:34;13.17;;;5.80;;
11761;SDS011;5938;47.098;15.474;2022-08-03T05:12:47;5.70;;;5.20;;
11761;SDS011;5938;47.098;15.474;2022-08-03T05:16:52;6.23;;;5.63;;
11761;SDS011;5938;47.098;15.474;2022-08-03T05:20:55;5.37;;;4.97;;
11761;SDS011;5938;47.098;15.474;2022-08-03T05:25:01;6.60;;;4.93;;
11761;SDS011;5938;47.098;15.474;2022-08-03T05:29:05;6.10;;;5.60;;
11761;SDS011;5938;47.098;15.474;2022-08-03T05:33:09;5.87;;;4.93;;
11761;SDS011;5938;47.098;15.474;2022-08-03T05:37:13;5.13;;;4.63;;
11761;SDS011;5938;47.098;15.474;2022-08-03T05:41:18;6.03;;;5.43;;
11761;SDS011;5938;47.098;15.474;2022-08-03T05:45:37;5.80;;;5.17;;
11761;SDS011;5938;47.098;15.474;2022-08-03T05:49:41;6.60;;;4.80;;
11761;SDS011;5938;47.098;15.474;2022-08-03T05:53:45;5.63;;;4.93;;
11761;SDS011;5938;47.098;15.474;2022-08-03T05:57:50;5.37;;;4.83;;
11761;SDS011;5938;47.098;15.474;2022-08-03T06:01:58;5.13;;;4.63;;
11761;SDS011;5938;47.098;15.474;2022-08-03T06:06:02;5.70;;;5.20;;
11761;SDS011;5938;47.098;15.474;2022-08-03T06:10:07;8.83;;;5.30;;
11761;SDS011;5938;47.098;15.474;2022-08-03T06:14:32;6.70;;;6.10;;
11761;SDS011;5938;47.098;15.474;2022-08-03T06:18:36;5.90;;;5.30;;
11761;SDS011;5938;47.098;15.474;2022-08-03T06:22:41;6.47;;;4.73;;
11761;SDS011;5938;47.098;15.474;2022-08-03T06:27:00;5.10;;;4.43;;
11761;SDS011;5938;47.098;15.474;2022-08-03T06:31:05;5.03;;;4.60;;
11761;SDS011;5938;47.098;15.474;2022-08-03T06:35:09;6.80;;;6.20;;
11761;SDS011;5938;47.098;15.474;2022-08-03T06:39:12;5.33;;;4.87;;
11761;SDS011;5938;47.098;15.474;2022-08-03T06:43:15;4.73;;;4.33;;
11761;SDS011;5938;47.098;15.474;2022-08-03T06:47:21;4.30;;;4.00;;
11761;SDS011;5938;47.098;15.474;2022-08-03T06:51:24;5.27;;;4.73;;
11761;SDS011;5938;47.098;15.474;2022-08-03T06:55:49;7.83;;;4.00;;
11761;SDS011;5938;47.098;15.474;2022-08-03T06:59:56;4.37;;;4.07;;
11761;SDS011;5938;47.098;15.474;2022-08-03T07:04:12;3.90;;;3.60;;
11761;SDS011;5938;47.098;15.474;2022-08-03T07:08:16;3.60;;;3.30;;
11761;SDS011;5938;47.098;15.474;2022-08-03T07:12:34;3.23;;;2.97;;
11761;SDS011;5938;47.098;15.474;2022-08-03T07:16:56;3.00;;;2.80;;
11761;SDS011;5938;47.098;15.474;2022-08-03T07:21:01;3.40;;;3.07;;
11761;SDS011;5938;47.098;15.474;2022-08-03T07:25:06;3.30;;;3.10;;
11761;SDS011;5938;47.098;15.474;2022-08-03T07:29:10;3.63;;;3.33;;
11761;SDS011;5938;47.098;15.474;2022-08-03T07:33:15;3.50;;;3.20;;
11761;SDS011;5938;47.098;15.474;2022-08-03T07:37:20;3.47;;;3.17;;
11761;SDS011;5938;47.098;15.474;2022-08-03T07:41:23;3.00;;;2.80;;
11761;SDS011;5938;47.098;15.474;2022-08-03T07:45:27;3.93;;;3.00;;
11761;SDS011;5938;47.098;15.474;2022-08-03T07:49:31;3.43;;;3.13;;
11761;SDS011;5938;47.098;15.474;2022-08-03T07:53:36;2.80;;;2.60;;
11761;SDS011;5938;47.098;15.474;2022-08-03T07:57:57;3.07;;;2.60;;
11761;SDS011;5938;47.098;15.474;2022-08-03T08:02:03;3.17;;;2.70;;
11761;SDS011;5938;47.098;15.474;2022-08-03T08:06:08;3.10;;;2.90;;
11761;SDS011;5938;47.098;15.474;2022-08-03T08:10:13;2.70;;;2.50;;
11761;SDS011;5938;47.098;15.474;2022-08-03T08:14:17;4.20;;;3.00;;
11761;SDS011;5938;47.098;15.474;2022-08-03T08:18:20;3.03;;;2.83;;
11761;SDS011;5938;47.098;15.474;2022-08-03T08:22:24;2.50;;;2.30;;
11761;SDS011;5938;47.098;15.474;2022-08-03T08:26:32;2.97;;;2.50;;
11761;SDS011;5938;47.098;15.474;2022-08-03T08:30:35;2.80;;;2.60;;
11761;SDS011;5938;47.098;15.474;2022-08-03T08:34:40;2.57;;;2.37;;
11761;SDS011;5938;47.098;15.474;2022-08-03T08:38:43;2.50;;;2.30;;
11761;SDS011;5938;47.098;15.474;2022-08-03T08:42:48;3.23;;;2.53;;
11761;SDS011;5938;47.098;15.474;2022-08-03T08:46:59;4.50;;;2.40;;
11761;SDS011;5938;47.098;15.474;2022-08-03T08:51:05;2.63;;;2.43;;
11761;SDS011;5938;47.098;15.474;2022-08-03T08:55:13;2.70;;;2.50;;
11761;SDS011;5938;47.098;15.474;2022-08-03T08:59:22;2.20;;;2.10;;
11761;SDS011;5938;47.098;15.474;2022-08-03T09:03:47;2.90;;;2.70;;
11761;SDS011;5938;47.098;15.474;2022-08-03T09:07:50;3.73;;;2.50;;
11761;SDS011;5938;47.098;15.474;2022-08-03T09:11:54;2.63;;;2.43;;
11761;SDS011;5938;47.098;15.474;2022-08-03T09:16:19;2.63;;;2.17;;
11761;SDS011;5938;47.098;15.474;2022-08-03T09:20:25;2.73;;;2.53;;
11761;SDS011;5938;47.098;15.474;2022-08-03T09:24:30;1.97;;;1.87;;
11761;SDS011;5938;47.098;15.474;2022-08-03T09:28:41;3.47;;;2.40;;
11761;SDS011;5938;47.098;15.474;2022-08-03T09:33:04;2.30;;;2.13;;
11761;SDS011;5938;47.098;15.474;2022-08-03T09:37:12;2.70;;;2.50;;
11761;SDS011;5938;47.098;15.474;2022-08-03T09:41:17;2.60;;;2.37;;
11761;SDS011;5938;47.098;15.474;2022-08-03T09:45:24;2.37;;;2.13;;
11761;SDS011;5938;47.098;15.474;2022-08-03T09:49:29;2.50;;;2.30;;
11761;SDS011;5938;47.098;15.474;2022-08-03T09:53:40;2.67;;;2.13;;
11761;SDS011;5938;47.098;15.474;2022-08-03T09:58:04;3.23;;;2.93;;
11761;SDS011;5938;47.098;15.474;2022-08-03T10:02:18;3.00;;;2.60;;
11761;SDS011;5938;47.098;15.474;2022-08-03T10:06:25;3.00;;;2.13;;
11761;SDS011;5938;47.098;15.474;2022-08-03T10:10:29;2.70;;;2.50;;
11761;SDS011;5938;47.098;15.474;2022-08-03T10:14:44;2.67;;;2.47;;
11761;SDS011;5938;47.098;15.474;2022-08-03T10:18:48;2.80;;;2.60;;
11761;SDS011;5938;47.098;15.474;2022-08-03T10:22:53;2.80;;;2.60;;
11761;SDS011;5938;47.098;15.474;2022-08-03T10:26:58;2.40;;;2.20;;
11761;SDS011;5938;47.098;15.474;2022-08-03T10:31:04;2.50;;;2.30;;
11761;SDS011;5938;47.098;15.474;2022-08-03T10:35:10;3.10;;;2.37;;
11761;SDS011;5938;47.098;15.474;2022-08-03T10:39:24;2.17;;;1.97;;
11761;SDS011;5938;47.098;15.474;2022-08-03T10:43:31;2.37;;;2.17;;
11761;SDS011;5938;47.098;15.474;2022-08-03T10:47:38;3.20;;;2.63;;
11761;SDS011;5938;47.098;15.474;2022-08-03T10:51:43;2.60;;;2.40;;
11761;SDS011;5938;47.098;15.474;2022-08-03T10:55:56;3.73;;;2.50;;
11761;SDS011;5938;47.098;15.474;2022-08-03T11:00:48;2.90;;;2.70;;
11761;SDS011;5938;47.098;15.474;2022-08-03T11:04:59;4.63;;;2.67;;
11761;SDS011;5938;47.098;15.474;2022-08-03T11:09:39;3.40;;;2.30;;
11761;SDS011;5938;47.098;15.474;2022-08-03T11:13:55;2.10;;;2.00;;
11761;SDS011;5938;47.098;15.474;2022-08-03T11:18:06;3.10;;;2.13;;
11761;SDS011;5938;47.098;15.474;2022-08-03T11:22:12;2.47;;;2.00;;
11761;SDS011;5938;47.098;15.474;2022-08-03T11:26:16;1.93;;;1.83;;
11761;SDS011;5938;47.098;15.474;2022-08-03T11:30:23;2.03;;;1.93;;
11761;SDS011;5938;47.098;15.474;2022-08-03T11:34:29;2.20;;;1.80;;
11761;SDS011;5938;47.098;15.474;2022-08-03T11:38:33;5.00;;;1.90;;
11761;SDS011;5938;47.098;15.474;2022-08-03T11:42:42;2.23;;;2.03;;
11761;SDS011;5938;47.098;15.474;2022-08-03T11:46:50;2.10;;;1.93;;
11761;SDS011;5938;47.098;15.474;2022-08-03T11:50:54;2.00;;;1.80;;
11761;SDS011;5938;47.098;15.474;2022-08-03T11:54:58;1.80;;;1.70;;
11761;SDS011;5938;47.098;15.474;2022-08-03T11:59:01;2.10;;;2.00;;
11761;SDS011;5938;47.098;15.474;2022-08-03T12:03:22;2.43;;;2.20;;
11761;SDS011;5938;47.098;15.474;2022-08-03T12:07:27;2.33;;;2.13;;
11761;SDS011;5938;47.098;15.474;2022-08-03T12:11:51;2.10;;;2.00;;
11761;SDS011;5938;47.098;15.474;2022-08-03T12:16:01;2.30;;;2.20;;
11761;SDS011;5938;47.098;15.474;2022-08-03T12:20:07;1.93;;;1.83;;
11761;SDS011;5938;47.098;15.474;2022-08-03T12:24:11;2.80;;;2.03;;
11761;SDS011;5938;47.098;15.474;2022-08-03T12:28:16;2.00;;;1.90;;
11761;SDS011;5938;47.098;15.474;2022-08-03T12:32:38;1.80;;;1.70;;
11761;SDS011;5938;47.098;15.474;2022-08-03T12:36:50;1.93;;;1.67;;
11761;SDS011;5938;47.098;15.474;2022-08-03T12:40:56;1.90;;;1.80;;
11761;SDS011;5938;47.098;15.474;2022-08-03T12:49:19;1.93;;;1.77;;
11761;SDS011;5938;47.098;15.474;2022-08-03T12:53:28;1.93;;;1.83;;
11761;SDS011;5938;47.098;15.474;2022-08-03T12:57:39;2.23;;;2.03;;
11761;SDS011;5938;47.098;15.474;2022-08-03T13:01:43;2.00;;;1.77;;
11761;SDS011;5938;47.098;15.474;2022-08-03T13:05:55;1.87;;;1.70;;
11761;SDS011;5938;47.098;15.474;2022-08-03T13:10:00;1.70;;;1.50;;
11761;SDS011;5938;47.098;15.474;2022-08-03T13:14:08;1.90;;;1.70;;
11761;SDS011;5938;47.098;15.474;2022-08-03T13:18:20;2.03;;;1.93;;
11761;SDS011;5938;47.098;15.474;2022-08-03T13:22:24;2.03;;;1.93;;
11761;SDS011;5938;47.098;15.474;2022-08-03T13:26:30;3.10;;;1.80;;
11761;SDS011;5938;47.098;15.474;2022-08-03T13:30:34;2.40;;;2.00;;
11761;SDS011;5938;47.098;15.474;2022-08-03T13:34:37;1.80;;;1.70;;
11761;SDS011;5938;47.098;15.474;2022-08-03T13:38:40;1.80;;;1.70;;
11761;SDS011;5938;47.098;15.474;2022-08-03T13:42:47;1.50;;;1.40;;
11761;SDS011;5938;47.098;15.474;2022-08-03T13:46:50;2.00;;;1.80;;
11761;SDS011;5938;47.098;15.474;2022-08-03T13:50:53;3.40;;;1.80;;
11761;SDS011;5938;47.098;15.474;2022-08-03T13:54:57;1.90;;;1.70;;
11761;SDS011;5938;47.098;15.474;2022-08-03T13:59:02;1.77;;;1.67;;
11761;SDS011;5938;47.098;15.474;2022-08-03T14:03:05;1.73;;;1.40;;
11761;SDS011;5938;47.098;15.474;2022-08-03T14:07:14;1.47;;;1.37;;
11761;SDS011;5938;47.098;15.474;2022-08-03T14:11:18;2.07;;;1.87;;
11761;SDS011;5938;47.098;15.474;2022-08-03T14:15:23;1.73;;;1.40;;
11761;SDS011;5938;47.098;15.474;2022-08-03T14:19:27;1.60;;;1.50;;
11761;SDS011;5938;47.098;15.474;2022-08-03T14:23:30;1.50;;;1.40;;
11761;SDS011;5938;47.098;15.474;2022-08-03T14:27:33;1.90;;;1.80;;
11761;SDS011;5938;47.098;15.474;2022-08-03T14:31:38;1.53;;;1.43;;
11761;SDS011;5938;47.098;15.474;2022-08-03T14:36:02;1.80;;;1.40;;
11761;SDS011;5938;47.098;15.474;2022-08-03T14:40:06;1.80;;;1.70;;
11761;SDS011;5938;47.098;15.474;2022-08-03T14:44:11;1.73;;;1.63;;
11761;SDS011;5938;47.098;15.474;2022-08-03T14:48:16;1.90;;;1.80;;
11761;SDS011;5938;47.098;15.474;2022-08-03T14:57:11;1.50;;;1.40;;
11761;SDS011;5938;47.098;15.474;2022-08-03T15:01:14;2.50;;;1.40;;
11761;SDS011;5938;47.098;15.474;2022-08-03T15:05:39;2.37;;;1.43;;
11761;SDS011;5938;47.098;15.474;2022-08-03T15:09:42;3.63;;;1.80;;
11761;SDS011;5938;47.098;15.474;2022-08-03T15:13:46;5.17;;;2.30;;
11761;SDS011;5938;47.098;15.474;2022-08-03T15:17:49;1.70;;;1.60;;
11761;SDS011;5938;47.098;15.474;2022-08-03T15:22:02;3.93;;;2.07;;
11761;SDS011;5938;47.098;15.474;2022-08-03T15:26:09;1.93;;;1.70;;
11761;SDS011;5938;47.098;15.474;2022-08-03T15:30:32;1.77;;;1.50;;
11761;SDS011;5938;47.098;15.474;2022-08-03T15:34:37;1.70;;;1.60;;
11761;SDS011;5938;47.098;15.474;2022-08-03T15:38:52;3.33;;;1.77;;
11761;SDS011;5938;47.098;15.474;2022-08-03T15:42:55;2.30;;;2.10;;
11761;SDS011;5938;47.098;15.474;2022-08-03T15:47:01;2.47;;;2.27;;
11761;SDS011;5938;47.098;15.474;2022-08-03T15:51:05;2.60;;;2.40;;
11761;SDS011;5938;47.098;15.474;2022-08-03T15:55:10;2.07;;;1.83;;
11761;SDS011;5938;47.098;15.474;2022-08-03T15:59:17;1.90;;;1.80;;
11761;SDS011;5938;47.098;15.474;2022-08-03T16:03:21;1.90;;;1.80;;
11761;SDS011;5938;47.098;15.474;2022-08-03T16:07:24;2.00;;;1.90;;
11761;SDS011;5938;47.098;15.474;2022-08-03T16:12:08;1.63;;;1.53;;
11761;SDS011;5938;47.098;15.474;2022-08-03T16:16:16;1.77;;;1.67;;
11761;SDS011;5938;47.098;15.474;2022-08-03T16:20:20;1.90;;;1.80;;
11761;SDS011;5938;47.098;15.474;2022-08-03T16:24:34;1.90;;;1.80;;
11761;SDS011;5938;47.098;15.474;2022-08-03T16:28:41;1.90;;;1.80;;
11761;SDS011;5938;47.098;15.474;2022-08-03T16:32:45;2.40;;;2.07;;
11761;SDS011;5938;47.098;15.474;2022-08-03T16:36:48;1.93;;;1.83;;
11761;SDS011;5938;47.098;15.474;2022-08-03T16:40:51;2.20;;;1.90;;
11761;SDS011;5938;47.098;15.474;2022-08-03T16:44:56;1.80;;;1.70;;
11761;SDS011;5938;47.098;15.474;2022-08-03T16:49:00;2.43;;;2.23;;
11761;SDS011;5938;47.098;15.474;2022-08-03T16:53:03;2.00;;;1.90;;
11761;SDS011;5938;47.098;15.474;2022-08-03T16:57:09;2.20;;;2.10;;
11761;SDS011;5938;47.098;15.474;2022-08-03T17:01:17;2.43;;;2.23;;
11761;SDS011;5938;47.098;15.474;2022-08-03T17:05:38;2.30;;;2.10;;
11761;SDS011;5938;47.098;15.474;2022-08-03T17:09:50;2.63;;;2.10;;
11761;SDS011;5938;47.098;15.474;2022-08-03T17:13:56;2.43;;;2.23;;
11761;SDS011;5938;47.098;15.474;2022-08-03T17:18:03;2.90;;;2.60;;
11761;SDS011;5938;47.098;15.474;2022-08-03T17:22:10;2.57;;;2.37;;
11761;SDS011;5938;47.098;15.474;2022-08-03T17:26:16;2.87;;;2.60;;
11761;SDS011;5938;47.098;15.474;2022-08-03T17:30:22;2.83;;;2.30;;
11761;SDS011;5938;47.098;15.474;2022-08-03T17:34:48;2.37;;;2.17;;
11761;SDS011;5938;47.098;15.474;2022-08-03T17:38:52;2.60;;;2.40;;
11761;SDS011;5938;47.098;15.474;2022-08-03T17:42:56;2.90;;;2.60;;
11761;SDS011;5938;47.098;15.474;2022-08-03T17:47:00;6.17;;;3.10;;
11761;SDS011;5938;47.098;15.474;2022-08-03T17:51:06;4.10;;;2.40;;
11761;SDS011;5938;47.098;15.474;2022-08-03T17:55:20;3.97;;;2.53;;
11761;SDS011;5938;47.098;15.474;2022-08-03T17:59:51;2.50;;;2.30;;
11761;SDS011;5938;47.098;15.474;2022-08-03T18:04:02;3.90;;;3.03;;
11761;SDS011;5938;47.098;15.474;2022-08-03T18:08:15;2.50;;;2.30;;
11761;SDS011;5938;47.098;15.474;2022-08-03T18:12:26;5.77;;;3.50;;
11761;SDS011;5938;47.098;15.474;2022-08-03T18:16:35;3.97;;;3.27;;
11761;SDS011;5938;47.098;15.474;2022-08-03T18:20:41;2.73;;;2.20;;
11761;SDS011;5938;47.098;15.474;2022-08-03T18:24:54;3.00;;;2.70;;
11761;SDS011;5938;47.098;15.474;2022-08-03T18:29:04;5.30;;;3.40;;
11761;SDS011;5938;47.098;15.474;2022-08-03T18:33:15;2.90;;;2.63;;
11761;SDS011;5938;47.098;15.474;2022-08-03T18:37:41;4.53;;;2.83;;
11761;SDS011;5938;47.098;15.474;2022-08-03T18:41:55;3.70;;;2.80;;
11761;SDS011;5938;47.098;15.474;2022-08-03T18:46:02;2.57;;;2.37;;
11761;SDS011;5938;47.098;15.474;2022-08-03T18:50:11;3.30;;;3.00;;
11761;SDS011;5938;47.098;15.474;2022-08-03T18:54:20;2.73;;;2.50;;
11761;SDS011;5938;47.098;15.474;2022-08-03T18:58:50;3.20;;;2.90;;
11761;SDS011;5938;47.098;15.474;2022-08-03T19:03:14;3.33;;;3.03;;
11761;SDS011;5938;47.098;15.474;2022-08-03T19:07:25;3.27;;;2.97;;
11761;SDS011;5938;47.098;15.474;2022-08-03T19:11:39;3.03;;;2.77;;
11761;SDS011;5938;47.098;15.474;2022-08-03T19:16:08;3.03;;;2.83;;
11761;SDS011;5938;47.098;15.474;2022-08-03T19:20:26;3.83;;;2.90;;
11761;SDS011;5938;47.098;15.474;2022-08-03T19:24:32;3.67;;;3.37;;
11761;SDS011;5938;47.098;15.474;2022-08-03T19:28:41;3.60;;;3.30;;
11761;SDS011;5938;47.098;15.474;2022-08-03T19:37:13;2.90;;;2.70;;
11761;SDS011;5938;47.098;15.474;2022-08-03T19:41:22;3.47;;;3.20;;
11761;SDS011;5938;47.098;15.474;2022-08-03T19:45:43;3.53;;;2.80;;
11761;SDS011;5938;47.098;15.474;2022-08-03T19:50:09;3.50;;;3.20;;
11761;SDS011;5938;47.098;15.474;2022-08-03T19:54:15;3.97;;;3.57;;
11761;SDS011;5938;47.098;15.474;2022-08-03T19:58:33;7.63;;;3.57;;
11761;SDS011;5938;47.098;15.474;2022-08-03T20:02:38;3.90;;;3.60;;
11761;SDS011;5938;47.098;15.474;2022-08-03T20:06:46;3.90;;;3.50;;
11761;SDS011;5938;47.098;15.474;2022-08-03T20:10:52;4.10;;;3.80;;
11761;SDS011;5938;47.098;15.474;2022-08-03T20:14:57;4.07;;;3.57;;
11761;SDS011;5938;47.098;15.474;2022-08-03T20:19:01;3.80;;;3.50;;
11761;SDS011;5938;47.098;15.474;2022-08-03T20:23:16;2.90;;;2.70;;
11761;SDS011;5938;47.098;15.474;2022-08-03T20:27:23;3.00;;;2.80;;
11761;SDS011;5938;47.098;15.474;2022-08-03T20:31:31;4.10;;;3.80;;
11761;SDS011;5938;47.098;15.474;2022-08-03T20:35:36;4.10;;;3.70;;
11761;SDS011;5938;47.098;15.474;2022-08-03T20:39:47;3.93;;;3.10;;
11761;SDS011;5938;47.098;15.474;2022-08-03T20:43:51;4.90;;;3.93;;
11761;SDS011;5938;47.098;15.474;2022-08-03T20:47:54;4.00;;;3.70;;
11761;SDS011;5938;47.098;15.474;2022-08-03T20:52:02;5.60;;;3.63;;
11761;SDS011;5938;47.098;15.474;2022-08-03T20:56:20;3.27;;;3.07;;
11761;SDS011;5938;47.098;15.474;2022-08-03T21:00:26;4.73;;;3.80;;
11761;SDS011;5938;47.098;15.474;2022-08-03T21:04:32;4.10;;;3.80;;
11761;SDS011;5938;47.098;15.474;2022-08-03T21:08:37;3.93;;;3.63;;
11761;SDS011;5938;47.098;15.474;2022-08-03T21:12:51;3.80;;;3.50;;
11761;SDS011;5938;47.098;15.474;2022-08-03T21:17:16;3.70;;;3.40;;
11761;SDS011;5938;47.098;15.474;2022-08-03T21:21:41;4.60;;;4.17;;
11761;SDS011;5938;47.098;15.474;2022-08-03T21:25:48;3.17;;;2.97;;
11761;SDS011;5938;47.098;15.474;2022-08-03T21:29:54;3.40;;;3.10;;
11761;SDS011;5938;47.098;15.474;2022-08-03T21:33:59;4.43;;;4.10;;
11761;SDS011;5938;47.098;15.474;2022-08-03T21:38:03;4.50;;;4.10;;
11761;SDS011;5938;47.098;15.474;2022-08-03T21:42:30;3.70;;;3.40;;
11761;SDS011;5938;47.098;15.474;2022-08-03T21:46:35;4.43;;;4.00;;
11761;SDS011;5938;47.098;15.474;2022-08-03T21:50:40;3.77;;;3.47;;
11761;SDS011;5938;47.098;15.474;2022-08-03T21:54:44;5.17;;;3.63;;
11761;SDS011;5938;47.098;15.474;2022-08-03T21:58:52;3.90;;;3.60;;
11761;SDS011;5938;47.098;15.474;2022-08-03T22:02:58;4.33;;;3.80;;
11761;SDS011;5938;47.098;15.474;2022-08-03T22:07:17;4.33;;;3.60;;
11761;SDS011;5938;47.098;15.474;2022-08-03T22:11:22;4.83;;;4.40;;
11761;SDS011;5938;47.098;15.474;2022-08-03T22:15:25;4.90;;;4.50;;
11761;SDS011;5938;47.098;15.474;2022-08-03T22:19:30;4.43;;;3.93;;
11761;SDS011;5938;47.098;15.474;2022-08-03T22:23:34;4.30;;;3.90;;
11761;SDS011;5938;47.098;15.474;2022-08-03T22:27:42;4.00;;;3.70;;
11761;SDS011;5938;47.098;15.474;2022-08-03T22:31:46;4.17;;;3.77;;
11761;SDS011;5938;47.098;15.474;2022-08-03T22:36:01;4.50;;;4.10;;
11761;SDS011;5938;47.098;15.474;2022-08-03T22:40:07;4.73;;;4.07;;
11761;SDS011;5938;47.098;15.474;2022-08-03T22:44:12;4.27;;;3.97;;
11761;SDS011;5938;47.098;15.474;2022-08-03T22:48:17;4.17;;;3.87;;
11761;SDS011;5938;47.098;15.474;2022-08-03T22:52:23;4.60;;;4.20;;
11761;SDS011;5938;47.098;15.474;2022-08-03T22:56:28;4.47;;;4.07;;
11761;SDS011;5938;47.098;15.474;2022-08-03T23:00:33;5.60;;;4.00;;
11761;SDS011;5938;47.098;15.474;2022-08-03T23:04:37;8.17;;;4.37;;
11761;SDS011;5938;47.098;15.474;2022-08-03T23:08:44;4.73;;;4.20;;
11761;SDS011;5938;47.098;15.474;2022-08-03T23:12:48;4.67;;;4.37;;
11761;SDS011;5938;47.098;15.474;2022-08-03T23:16:55;4.70;;;4.30;;
11761;SDS011;5938;47.098;15.474;2022-08-03T23:21:04;4.83;;;4.50;;
11761;SDS011;5938;47.098;15.474;2022-08-03T23:25:13;4.53;;;4.10;;
11761;SDS011;5938;47.098;15.474;2022-08-03T23:29:17;5.40;;;4.33;;
11761;SDS011;5938;47.098;15.474;2022-08-03T23:33:23;4.57;;;4.27;;
11761;SDS011;5938;47.098;15.474;2022-08-03T23:37:28;4.20;;;3.80;;
11761;SDS011;5938;47.098;15.474;2022-08-03T23:41:55;4.17;;;3.87;;
11761;SDS011;5938;47.098;15.474;2022-08-03T23:46:02;4.90;;;4.50;;
11761;SDS011;5938;47.098;15.474;2022-08-03T23:50:08;7.50;;;4.00;;
11761;SDS011;5938;47.098;15.474;2022-08-03T23:54:14;7.00;;;4.77;;
11761;SDS011;5938;47.098;15.474;2022-08-03T23:58:31;5.27;;;4.20;;
